createdAt,value
2019-01-30T00:00:16.005Z,98670.90
2019-01-30T00:02:42.207Z,98668.06
2019-01-30T00:05:08.399Z,98665.46
2019-01-30T00:07:34.602Z,98666.33
2019-01-30T00:10:00.776Z,98659.62
2019-01-30T00:12:26.974Z,98659.67
2019-01-30T00:14:53.128Z,98660.37
2019-01-30T00:17:19.334Z,98655.99
2019-01-30T00:19:45.671Z,98655.00
2019-01-30T00:22:11.882Z,98649.83
2019-01-30T00:24:38.071Z,98653.88
2019-01-30T00:27:04.276Z,98650.59
2019-01-30T00:29:30.470Z,98646.16
2019-01-30T00:31:56.622Z,98650.67
2019-01-30T00:34:22.843Z,98646.78
2019-01-30T00:36:49.006Z,98642.63
2019-01-30T00:39:15.195Z,98637.34
2019-01-30T00:41:41.927Z,98628.48
2019-01-30T00:44:08.102Z,98633.27
2019-01-30T00:46:34.615Z,98631.92
2019-01-30T00:49:00.815Z,98630.09
2019-01-30T00:51:27.281Z,98629.77
2019-01-30T00:53:53.538Z,98625.65
2019-01-30T00:56:19.736Z,98625.14
2019-01-30T00:58:45.955Z,98624.91
2019-01-30T01:01:12.285Z,98625.36
2019-01-30T01:03:38.976Z,98630.24
2019-01-30T01:06:05.179Z,98630.19
2019-01-30T01:08:31.596Z,98625.31
2019-01-30T01:10:57.921Z,98629.98
2019-01-30T01:13:24.127Z,98626.41
2019-01-30T01:15:50.325Z,98621.64
2019-01-30T01:18:22.662Z,98623.81
2019-01-30T01:20:49.759Z,98626.64
2019-01-30T01:23:15.949Z,98618.51
2019-01-30T01:25:42.234Z,98618.59
2019-01-30T01:28:08.516Z,98616.41
2019-01-30T01:30:34.797Z,98616.07
2019-01-30T01:33:00.982Z,98614.20
2019-01-30T01:35:27.236Z,98613.47
2019-01-30T01:37:53.716Z,98609.27
2019-01-30T01:40:20.023Z,98608.59
2019-01-30T01:42:46.251Z,98606.89
2019-01-30T01:45:15.516Z,98603.90
2019-01-30T01:47:42.086Z,98597.47
2019-01-30T01:50:12.582Z,98599.89
2019-01-30T01:52:38.950Z,98592.58
2019-01-30T01:55:09.126Z,98583.59
2019-01-30T01:57:35.292Z,98587.23
2019-01-30T02:00:06.035Z,98585.20
2019-01-30T02:02:32.355Z,98577.77
2019-01-30T02:04:58.581Z,98576.70
2019-01-30T02:07:24.731Z,98572.84
2019-01-30T02:09:50.906Z,98569.33
2019-01-30T02:12:17.098Z,98562.04
2019-01-30T02:14:43.400Z,98560.92
2019-01-30T02:17:09.569Z,98561.97
2019-01-30T02:19:38.806Z,98553.22
2019-01-30T02:22:05.075Z,98547.63
2019-01-30T02:24:31.264Z,98544.67
2019-01-30T02:26:57.424Z,98541.67
2019-01-30T02:29:23.747Z,98532.52
2019-01-30T02:31:49.971Z,98526.42
2019-01-30T02:34:16.214Z,98519.74
2019-01-30T02:36:57.469Z,98512.48
2019-01-30T02:39:23.787Z,98518.27
2019-01-30T02:41:50.736Z,98508.81
2019-01-30T02:44:17.271Z,98506.20
2019-01-30T02:46:43.442Z,98499.23
2019-01-30T02:49:09.652Z,98502.82
2019-01-30T02:51:35.814Z,98497.62
2019-01-30T02:54:02.022Z,98498.73
2019-01-30T02:56:28.180Z,98497.47
2019-01-30T02:58:54.442Z,98498.23
2019-01-30T03:01:20.591Z,98490.89
2019-01-30T03:03:46.862Z,98492.89
2019-01-30T03:06:13.013Z,98492.66
2019-01-30T03:08:39.300Z,98489.80
2019-01-30T03:11:05.510Z,98485.22
2019-01-30T03:13:31.798Z,98483.42
2019-01-30T03:15:58.011Z,98479.68
2019-01-30T03:18:24.152Z,98480.44
2019-01-30T03:20:50.679Z,98477.80
2019-01-30T03:23:16.861Z,98480.98
2019-01-30T03:25:43.110Z,98476.27
2019-01-30T03:28:09.270Z,98476.19
2019-01-30T03:30:35.825Z,98470.00
2019-01-30T03:33:02.204Z,98471.06
2019-01-30T03:35:28.483Z,98473.95
2019-01-30T03:37:54.774Z,98466.92
2019-01-30T03:40:21.978Z,98467.50
2019-01-30T03:42:48.639Z,98466.82
2019-01-30T03:45:19.372Z,98464.45
2019-01-30T03:47:45.535Z,98462.28
2019-01-30T03:50:13.434Z,98455.63
2019-01-30T03:52:39.683Z,98455.89
2019-01-30T03:55:12.371Z,98456.36
2019-01-30T03:57:38.517Z,98454.56
2019-01-30T04:00:12.900Z,98453.42
2019-01-30T04:02:39.092Z,98452.02
2019-01-30T04:05:07.081Z,98448.05
2019-01-30T04:07:33.308Z,98452.84
2019-01-30T04:09:59.523Z,98458.02
2019-01-30T04:12:25.684Z,98455.27
2019-01-30T04:14:51.941Z,98458.36
2019-01-30T04:17:18.104Z,98454.78
2019-01-30T04:19:44.330Z,98447.16
2019-01-30T04:22:10.514Z,98447.97
2019-01-30T04:27:42.472Z,98449.91
2019-01-30T04:30:13.506Z,98443.92
2019-01-30T04:32:39.706Z,98445.04
2019-01-30T04:35:06.502Z,98440.36
2019-01-30T04:37:32.710Z,98438.91
2019-01-30T04:39:58.914Z,98431.13
2019-01-30T04:42:25.078Z,98429.68
2019-01-30T04:44:51.471Z,98420.93
2019-01-30T04:47:17.644Z,98421.01
2019-01-30T04:49:43.831Z,98421.97
2019-01-30T04:52:09.984Z,98417.89
2019-01-30T04:54:36.205Z,98420.84
2019-01-30T04:57:02.815Z,98421.33
2019-01-30T04:59:29.006Z,98418.42
2019-01-30T05:01:55.163Z,98412.89
2019-01-30T05:04:21.378Z,98415.06
2019-01-30T05:06:47.571Z,98407.95
2019-01-30T05:09:13.984Z,98407.63
2019-01-30T05:11:40.175Z,98402.45
2019-01-30T05:14:06.345Z,98403.59
2019-01-30T05:16:32.522Z,98402.05
2019-01-30T05:18:58.715Z,98397.84
2019-01-30T05:21:24.918Z,98394.34
2019-01-30T05:23:51.119Z,98396.64
2019-01-30T05:26:19.464Z,98392.73
2019-01-30T05:28:45.657Z,98389.55
2019-01-30T05:31:12.502Z,98384.22
2019-01-30T05:33:38.760Z,98376.95
2019-01-30T05:36:05.270Z,98383.00
2019-01-30T05:38:34.639Z,98378.48
2019-01-30T05:41:01.319Z,98375.73
2019-01-30T05:43:27.702Z,98377.09
2019-01-30T05:45:55.566Z,98379.23
2019-01-30T05:48:22.757Z,98385.45
2019-01-30T05:50:50.065Z,98379.45
2019-01-30T05:53:16.326Z,98371.83
2019-01-30T05:55:42.599Z,98366.30
2019-01-30T05:58:08.758Z,98366.09
2019-01-30T06:00:37.020Z,98369.30
2019-01-30T06:03:03.386Z,98362.81
2019-01-30T06:05:29.975Z,98358.06
2019-01-30T06:07:56.149Z,98358.13
2019-01-30T06:10:22.385Z,98356.97
2019-01-30T06:12:49.712Z,98358.39
2019-01-30T06:15:18.246Z,98354.38
2019-01-30T06:17:44.458Z,98354.50
2019-01-30T06:20:16.140Z,98349.78
2019-01-30T06:22:42.314Z,98357.07
2019-01-30T06:25:08.817Z,98356.73
2019-01-30T06:27:35.012Z,98366.63
2019-01-30T06:30:05.282Z,98368.69
2019-01-30T06:32:33.353Z,98372.41
2019-01-30T06:34:59.575Z,98376.02
2019-01-30T06:37:25.792Z,98375.56
2019-01-30T06:39:52.038Z,98372.33
2019-01-30T06:42:18.252Z,98383.16
2019-01-30T06:44:50.616Z,98385.45
2019-01-30T06:47:16.870Z,98382.69
2019-01-30T06:49:43.071Z,98384.82
2019-01-30T06:52:09.366Z,98385.55
2019-01-30T06:54:35.552Z,98381.38
2019-01-30T06:57:01.781Z,98373.77
2019-01-30T06:59:27.939Z,98373.95
2019-01-30T07:01:54.156Z,98371.78
2019-01-30T07:04:20.350Z,98370.13
2019-01-30T07:06:46.564Z,98372.82
2019-01-30T07:09:12.740Z,98364.34
2019-01-30T07:11:38.946Z,98361.58
2019-01-30T07:14:05.104Z,98357.52
2019-01-30T07:16:31.559Z,98359.00
2019-01-30T07:18:58.103Z,98361.80
2019-01-30T07:21:24.306Z,98362.16
2019-01-30T07:23:50.466Z,98359.95
2019-01-30T07:26:16.773Z,98361.28
2019-01-30T07:28:43.055Z,98360.67
2019-01-30T07:31:09.590Z,98361.55
2019-01-30T07:33:35.819Z,98356.95
2019-01-30T07:36:02.649Z,98358.42
2019-01-30T07:38:28.926Z,98363.52
2019-01-30T07:40:55.429Z,98358.89
2019-01-30T07:43:23.014Z,98367.23
2019-01-30T07:45:49.518Z,98361.72
2019-01-30T07:48:15.849Z,98365.17
2019-01-30T07:50:42.045Z,98365.20
2019-01-30T07:53:08.226Z,98367.77
2019-01-30T07:55:34.471Z,98367.78
2019-01-30T07:58:00.703Z,98372.08
2019-01-30T08:00:29.042Z,98369.97
2019-01-30T08:02:55.547Z,98369.92
2019-01-30T08:05:22.680Z,98364.10
2019-01-30T08:07:49.530Z,98369.22
2019-01-30T08:10:16.099Z,98363.04
2019-01-30T08:12:42.781Z,98362.77
2019-01-30T08:15:13.118Z,98362.36
2019-01-30T08:17:39.312Z,98361.86
2019-01-30T08:20:12.779Z,98356.64
2019-01-30T08:22:41.277Z,98353.64
2019-01-30T08:25:11.839Z,98358.02
2019-01-30T08:27:38.147Z,98360.92
2019-01-30T08:30:24.964Z,98355.95
2019-01-30T08:32:52.013Z,98358.05
2019-01-30T08:35:20.019Z,98354.47
2019-01-30T08:37:46.528Z,98359.77
2019-01-30T08:40:12.812Z,98360.30
2019-01-30T08:42:39.152Z,98352.80
2019-01-30T08:45:19.129Z,98356.52
2019-01-30T08:47:45.342Z,98358.11
2019-01-30T08:50:13.314Z,98363.30
2019-01-30T08:52:40.011Z,98357.92
2019-01-30T08:55:09.899Z,98357.73
2019-01-30T08:57:36.352Z,98357.51
2019-01-30T09:00:08.487Z,98357.46
2019-01-30T09:02:36.614Z,98353.02
2019-01-30T09:05:06.916Z,98356.05
2019-01-30T09:07:43.610Z,98351.27
2019-01-30T09:10:01.563Z,98354.39
2019-01-30T09:12:27.863Z,98348.23
2019-01-30T09:14:54.324Z,98347.14
2019-01-30T09:17:20.541Z,98351.25
2019-01-30T09:19:46.724Z,98350.19
2019-01-30T09:22:14.832Z,98348.78
2019-01-30T09:24:41.081Z,98344.77
2019-01-30T09:27:07.654Z,98338.95
2019-01-30T09:29:33.864Z,98342.17
2019-01-30T09:32:00.509Z,98342.49
2019-01-30T09:34:26.844Z,98340.50
2019-01-30T09:36:53.947Z,98334.23
2019-01-30T09:39:20.236Z,98327.89
2019-01-30T09:41:46.437Z,98332.22
2019-01-30T09:44:12.917Z,98331.86
2019-01-30T09:46:39.195Z,98333.53
2019-01-30T09:49:05.397Z,98330.55
2019-01-30T09:51:31.715Z,98321.05
2019-01-30T09:53:58.096Z,98321.55
2019-01-30T09:56:24.624Z,98323.47
2019-01-30T09:58:50.825Z,98315.18
2019-01-30T10:01:17.102Z,98316.02
2019-01-30T10:03:43.309Z,98317.05
2019-01-30T10:06:11.688Z,98305.65
2019-01-30T10:08:37.928Z,98303.02
2019-01-30T10:11:04.113Z,98312.62
2019-01-30T10:13:30.331Z,98312.11
2019-01-30T10:15:56.603Z,98303.06
2019-01-30T10:18:22.861Z,98307.11
2019-01-30T10:20:49.571Z,98304.80
2019-01-30T10:23:15.931Z,98296.27
2019-01-30T10:25:42.263Z,98294.69
2019-01-30T10:28:16.353Z,98282.23
2019-01-30T10:30:41.839Z,98286.92
2019-01-30T10:33:08.068Z,98278.30
2019-01-30T10:35:34.327Z,98286.27
2019-01-30T10:38:00.852Z,98273.34
2019-01-30T10:40:27.025Z,98277.11
2019-01-30T10:42:54.057Z,98277.75
2019-01-30T10:45:21.070Z,98279.25
2019-01-30T10:47:47.310Z,98271.21
2019-01-30T10:50:20.369Z,98268.08
2019-01-30T10:52:46.607Z,98271.42
2019-01-30T10:55:22.903Z,98274.36
2019-01-30T10:57:52.110Z,98267.27
2019-01-30T11:00:25.910Z,98284.38
2019-01-30T11:02:52.361Z,98267.45
2019-01-30T11:05:18.846Z,98260.89
2019-01-30T11:07:45.082Z,98263.69
2019-01-30T11:10:15.419Z,98262.69
2019-01-30T11:12:41.588Z,98248.37
2019-01-30T11:15:12.395Z,98245.72
2019-01-30T11:17:38.524Z,98239.77
2019-01-30T11:20:10.035Z,98228.39
2019-01-30T11:22:36.300Z,98229.22
2019-01-30T11:25:08.269Z,98227.56
2019-01-30T11:27:34.518Z,98229.27
2019-01-30T11:30:00.721Z,98227.97
2019-01-30T11:32:26.919Z,98223.70
2019-01-30T11:34:53.133Z,98222.38
2019-01-30T11:37:19.292Z,98223.86
2019-01-30T11:39:45.587Z,98223.52
2019-01-30T11:42:11.798Z,98225.36
2019-01-30T11:44:38.080Z,98217.47
2019-01-30T11:47:04.308Z,98211.86
2019-01-30T11:49:30.541Z,98205.44
2019-01-30T11:51:57.130Z,98202.98
2019-01-30T11:54:23.615Z,98199.19
2019-01-30T11:56:51.813Z,98194.91
2019-01-30T11:59:18.021Z,98194.58
2019-01-30T12:01:44.222Z,98194.75
2019-01-30T12:04:17.738Z,98193.61
2019-01-30T12:06:38.532Z,98184.38
2019-01-30T12:09:05.944Z,98185.53
2019-01-30T12:11:32.150Z,98186.02
2019-01-30T12:13:59.288Z,98185.39
2019-01-30T12:16:25.515Z,98188.68
2019-01-30T12:18:52.724Z,98191.30
2019-01-30T12:21:19.187Z,98194.58
2019-01-30T12:23:45.510Z,98186.53
2019-01-30T12:26:12.086Z,98185.55
2019-01-30T12:28:38.338Z,98183.40
2019-01-30T12:31:04.522Z,98183.08
2019-01-30T12:33:30.833Z,98189.33
2019-01-30T12:35:57.299Z,98186.53
2019-01-30T12:38:23.561Z,98186.69
2019-01-30T12:40:49.838Z,98188.96
2019-01-30T12:43:16.041Z,98184.19
2019-01-30T12:45:42.231Z,98185.03
2019-01-30T12:48:10.899Z,98175.52
2019-01-30T12:50:37.027Z,98167.77
2019-01-30T12:53:03.339Z,98167.10
2019-01-30T12:55:29.945Z,98167.27
2019-01-30T12:57:56.498Z,98166.45
2019-01-30T13:00:36.069Z,98164.66
2019-01-30T13:03:02.886Z,98165.64
2019-01-30T13:05:31.998Z,98161.55
2019-01-30T13:07:58.523Z,98169.42
2019-01-30T13:10:24.991Z,98168.12
2019-01-30T13:12:51.231Z,98163.98
2019-01-30T13:15:26.939Z,98159.25
2019-01-30T13:17:53.177Z,98163.68
2019-01-30T13:20:21.098Z,98162.54
2019-01-30T13:22:47.483Z,98157.77
2019-01-30T13:25:18.065Z,98162.84
2019-01-30T13:27:44.537Z,98162.05
2019-01-30T13:30:16.176Z,98154.95
2019-01-30T13:32:42.505Z,98159.20
2019-01-30T13:35:08.995Z,98157.41
2019-01-30T13:37:35.293Z,98158.39
2019-01-30T13:40:01.489Z,98159.06
2019-01-30T13:42:27.752Z,98157.59
2019-01-30T13:44:54.031Z,98158.55
2019-01-30T13:47:20.701Z,98150.63
2019-01-30T13:49:47.256Z,98151.25
2019-01-30T13:52:13.431Z,98159.05
2019-01-30T13:54:39.612Z,98154.97
2019-01-30T13:57:05.809Z,98151.42
2019-01-30T13:59:32.157Z,98150.19
2019-01-30T14:01:58.333Z,98154.16
2019-01-30T14:04:24.503Z,98163.55
2019-01-30T14:06:50.697Z,98165.55
2019-01-30T14:09:16.953Z,98156.56
2019-01-30T14:11:43.194Z,98164.59
2019-01-30T14:14:09.389Z,98158.34
2019-01-30T14:16:35.606Z,98151.81
2019-01-30T14:19:02.200Z,98157.11
2019-01-30T14:21:28.358Z,98156.24
2019-01-30T14:23:54.745Z,98161.48
2019-01-30T14:26:20.937Z,98164.59
2019-01-30T14:28:47.165Z,98163.41
2019-01-30T14:31:13.465Z,98164.89
2019-01-30T14:33:39.689Z,98162.05
2019-01-30T14:36:05.868Z,98160.55
2019-01-30T14:38:32.543Z,98158.37
2019-01-30T14:40:59.208Z,98160.77
2019-01-30T14:43:25.525Z,98174.91
2019-01-30T14:45:51.774Z,98176.16
2019-01-30T14:48:17.983Z,98162.86
2019-01-30T14:50:44.166Z,98161.16
2019-01-30T14:53:10.374Z,98160.48
2019-01-30T14:55:36.552Z,98163.50
2019-01-30T14:58:05.298Z,98161.28
2019-01-30T15:00:32.670Z,98156.09
2019-01-30T15:02:59.783Z,98158.11
2019-01-30T15:05:27.053Z,98160.17
2019-01-30T15:07:53.261Z,98161.41
2019-01-30T15:10:23.261Z,98151.88
2019-01-30T15:12:50.205Z,98157.16
2019-01-30T15:15:23.769Z,98156.56
2019-01-30T15:17:50.141Z,98149.63
2019-01-30T15:20:19.929Z,98153.65
2019-01-30T15:22:46.387Z,98163.02
2019-01-30T15:25:15.883Z,98158.82
2019-01-30T15:27:42.111Z,98154.99
2019-01-30T15:30:13.728Z,98155.90
2019-01-30T15:32:39.926Z,98156.27
2019-01-30T15:35:06.952Z,98151.27
2019-01-30T15:37:33.118Z,98153.50
2019-01-30T15:39:59.917Z,98153.27
2019-01-30T15:42:26.088Z,98152.41
2019-01-30T15:44:52.397Z,98150.58
2019-01-30T15:47:18.647Z,98144.95
2019-01-30T15:49:45.176Z,98154.49
2019-01-30T15:52:11.346Z,98140.38
2019-01-30T15:54:38.256Z,98139.64
2019-01-30T15:57:04.406Z,98154.73
2019-01-30T15:59:30.616Z,98159.27
2019-01-30T16:01:56.782Z,98159.09
2019-01-30T16:04:23.311Z,98157.30
2019-01-30T16:06:49.517Z,98157.26
2019-01-30T16:09:16.117Z,98154.94
2019-01-30T16:11:42.315Z,98156.23
2019-01-30T16:14:09.002Z,98171.09
2019-01-30T16:16:35.200Z,98168.97
2019-01-30T16:19:01.384Z,98162.48
2019-01-30T16:21:27.619Z,98172.44
2019-01-30T16:23:53.770Z,98177.53
2019-01-30T16:26:20.247Z,98173.78
2019-01-30T16:28:46.655Z,98168.44
2019-01-30T16:31:12.860Z,98181.66
2019-01-30T16:33:39.317Z,98187.73
2019-01-30T16:36:05.888Z,98199.36
2019-01-30T16:38:32.041Z,98202.45
2019-01-30T16:40:58.288Z,98207.34
2019-01-30T16:43:24.824Z,98210.41
2019-01-30T16:45:51.031Z,98202.37
2019-01-30T16:48:17.577Z,98207.06
2019-01-30T16:50:44.039Z,98212.60
2019-01-30T16:53:10.199Z,98213.46
2019-01-30T16:55:38.009Z,98210.36
2019-01-30T16:58:05.346Z,98221.70
2019-01-30T17:00:33.674Z,98230.23
2019-01-30T17:03:02.161Z,98229.62
2019-01-30T17:05:29.447Z,98232.08
2019-01-30T17:07:55.620Z,98232.61
2019-01-30T17:10:21.823Z,98234.77
2019-01-30T17:12:48.007Z,98241.18
2019-01-30T17:15:28.044Z,98245.27
2019-01-30T17:17:54.237Z,98248.33
2019-01-30T17:20:23.940Z,98246.85
2019-01-30T17:22:50.232Z,98248.44
2019-01-30T17:25:17.033Z,98248.23
2019-01-30T17:27:43.220Z,98244.83
2019-01-30T17:30:20.131Z,98245.84
2019-01-30T17:32:46.417Z,98244.56
2019-01-30T17:35:12.929Z,98241.41
2019-01-30T17:37:39.209Z,98236.80
2019-01-30T17:40:13.725Z,98241.60
2019-01-30T17:42:39.921Z,98237.59
2019-01-30T17:45:07.438Z,98235.74
2019-01-30T17:47:33.589Z,98236.31
2019-01-30T17:50:00.342Z,98244.25
2019-01-30T17:52:26.480Z,98242.99
2019-01-30T17:54:52.673Z,98246.42
2019-01-30T17:57:19.173Z,98245.27
2019-01-30T17:59:45.366Z,98247.23
2019-01-30T18:02:11.852Z,98247.23
2019-01-30T18:04:38.350Z,98255.39
2019-01-30T18:07:04.585Z,98255.23
2019-01-30T18:09:31.029Z,98255.55
2019-01-30T18:11:57.258Z,98257.34
2019-01-30T18:14:23.432Z,98263.58
2019-01-30T18:16:49.740Z,98269.78
2019-01-30T18:19:15.910Z,98266.64
2019-01-30T18:21:42.158Z,98265.83
2019-01-30T18:24:08.363Z,98263.05
2019-01-30T18:26:37.877Z,98266.30
2019-01-30T18:29:03.175Z,98262.03
2019-01-30T18:31:29.688Z,98274.58
2019-01-30T18:33:55.966Z,98274.12
2019-01-30T18:36:22.173Z,98273.81
2019-01-30T18:38:48.371Z,98270.92
2019-01-30T18:41:14.580Z,98272.55
2019-01-30T18:43:40.794Z,98276.67
2019-01-30T18:46:13.975Z,98269.34
2019-01-30T18:48:40.160Z,98268.20
2019-01-30T18:51:06.433Z,98273.64
2019-01-30T18:53:32.709Z,98272.98
2019-01-30T18:55:58.910Z,98272.21
2019-01-30T18:58:25.109Z,98274.50
2019-01-30T19:00:51.350Z,98275.56
2019-01-30T19:03:17.524Z,98277.73
2019-01-30T19:05:44.183Z,98276.11
2019-01-30T19:08:10.473Z,98273.00
2019-01-30T19:10:36.787Z,98281.65
2019-01-30T19:13:03.582Z,98280.30
2019-01-30T19:15:30.191Z,98278.67
2019-01-30T19:17:56.515Z,98276.10
2019-01-30T19:20:34.015Z,98277.74
2019-01-30T19:23:00.305Z,98281.61
2019-01-30T19:25:26.620Z,98279.86
2019-01-30T19:27:55.932Z,98279.53
2019-01-30T19:30:30.240Z,98286.05
2019-01-30T19:32:59.744Z,98278.84
2019-01-30T19:35:25.925Z,98279.60
2019-01-30T19:37:53.039Z,98283.03
2019-01-30T19:40:21.880Z,98282.20
2019-01-30T19:42:48.207Z,98281.71
2019-01-30T19:45:24.232Z,98284.65
2019-01-30T19:47:50.754Z,98279.88
2019-01-30T19:50:27.459Z,98285.74
2019-01-30T19:52:54.465Z,98287.17
2019-01-30T19:55:20.976Z,98284.59
2019-01-30T19:57:47.549Z,98284.98
2019-01-30T20:00:21.672Z,98284.70
2019-01-30T20:02:48.751Z,98279.37
2019-01-30T20:05:15.123Z,98281.37
2019-01-30T20:07:41.383Z,98282.08
2019-01-30T20:10:18.481Z,98283.14
2019-01-30T20:12:44.812Z,98283.26
2019-01-30T20:15:11.342Z,98282.94
2019-01-30T20:17:37.680Z,98281.95
2019-01-30T20:20:14.832Z,98281.91
2019-01-30T20:22:41.406Z,98281.59
2019-01-30T20:25:13.539Z,98283.15
2019-01-30T20:27:39.758Z,98286.01
2019-01-30T20:30:11.351Z,98287.97
2019-01-30T20:32:37.974Z,98290.47
2019-01-30T20:35:06.431Z,98285.41
2019-01-30T20:37:32.814Z,98283.12
2019-01-30T20:39:59.630Z,98285.58
2019-01-30T20:42:25.827Z,98291.11
2019-01-30T20:44:52.384Z,98292.33
2019-01-30T20:47:18.715Z,98289.52
2019-01-30T20:49:45.041Z,98289.30
2019-01-30T20:52:11.310Z,98296.14
2019-01-30T20:54:37.643Z,98295.08
2019-01-30T20:57:03.937Z,98294.53
2019-01-30T20:59:30.138Z,98294.92
2019-01-30T21:01:56.357Z,98295.31
2019-01-30T21:04:22.539Z,98295.06
2019-01-30T21:06:53.522Z,98296.14
2019-01-30T21:09:19.765Z,98300.62
2019-01-30T21:11:46.249Z,98297.79
2019-01-30T21:14:12.453Z,98307.20
2019-01-30T21:16:38.694Z,98300.95
2019-01-30T21:19:05.014Z,98306.29
2019-01-30T21:21:31.168Z,98301.55
2019-01-30T21:23:57.443Z,98301.72
2019-01-30T21:26:23.642Z,98297.91
2019-01-30T21:28:50.030Z,98297.85
2019-01-30T21:31:16.192Z,98298.57
2019-01-30T21:33:42.716Z,98296.52
2019-01-30T21:36:09.047Z,98295.53
2019-01-30T21:38:35.238Z,98295.38
2019-01-30T21:41:01.457Z,98299.55
2019-01-30T21:43:27.878Z,98296.98
2019-01-30T21:45:54.183Z,98294.11
2019-01-30T21:48:20.419Z,98300.15
2019-01-30T21:50:46.586Z,98301.50
2019-01-30T21:53:13.077Z,98305.13
2019-01-30T21:55:39.543Z,98309.26
2019-01-30T21:58:06.113Z,98308.24
2019-01-30T22:00:32.389Z,98315.13
2019-01-30T22:02:58.733Z,98313.34
2019-01-30T22:05:25.457Z,98316.64
2019-01-30T22:08:00.567Z,98314.69
2019-01-30T22:10:24.224Z,98311.05
2019-01-30T22:12:50.757Z,98318.07
2019-01-30T22:15:17.047Z,98316.93
2019-01-30T22:17:43.371Z,98315.51
2019-01-30T22:20:13.146Z,98315.02
2019-01-30T22:22:39.395Z,98318.28
2019-01-30T22:25:19.908Z,98317.79
2019-01-30T22:27:38.133Z,98324.91
2019-01-30T22:30:10.023Z,98324.70
2019-01-30T22:32:38.757Z,98330.41
2019-01-30T22:35:08.022Z,98328.94
2019-01-30T22:37:34.240Z,98331.87
2019-01-30T22:40:12.563Z,98327.47
2019-01-30T22:42:38.746Z,98332.47
2019-01-30T22:45:09.605Z,98330.19
2019-01-30T22:47:36.413Z,98332.30
2019-01-30T22:50:06.497Z,98331.73
2019-01-30T22:52:32.782Z,98332.03
2019-01-30T22:54:59.253Z,98331.99
2019-01-30T22:57:25.411Z,98334.66
2019-01-30T22:59:51.638Z,98331.87
2019-01-30T23:02:19.124Z,98330.36
2019-01-30T23:04:56.755Z,98331.00
2019-01-30T23:07:37.945Z,98331.41
2019-01-30T23:10:32.827Z,98331.63
2019-01-30T23:13:07.772Z,98333.80
2019-01-30T23:15:55.108Z,98325.43
2019-01-30T23:18:56.264Z,98335.31
2019-01-30T23:21:33.837Z,98330.48
2019-01-30T23:24:31.120Z,98330.97
2019-01-30T23:27:08.763Z,98334.92
2019-01-30T23:29:58.573Z,98342.47
2019-01-30T23:32:52.993Z,98340.30
2019-01-30T23:35:33.482Z,98339.44
2019-01-30T23:38:20.509Z,98339.60
2019-01-30T23:41:03.970Z,98333.20
2019-01-30T23:43:48.057Z,98336.12
2019-01-30T23:46:38.136Z,98334.71
2019-01-30T23:49:40.333Z,98334.71
2019-01-30T23:52:42.396Z,98334.92
2019-01-30T23:55:41.180Z,98336.01
2019-01-30T23:58:32.276Z,98338.22
